sensor_id;sensor_type;location;lat;lon;timestamp;P1;durP1;ratioP1;P2;durP2;ratioP2
53688;SDS011;39583;54.682;30.662;2024-01-15T09:09:46;3.10;;;2.22;;
53688;SDS011;39583;54.682;30.662;2024-01-15T09:12:14;2.65;;;2.08;;
53688;SDS011;39583;54.682;30.662;2024-01-15T09:14:42;3.92;;;2.38;;
53688;SDS011;39583;54.682;30.662;2024-01-15T09:17:10;4.00;;;2.10;;
53688;SDS011;39583;54.682;30.662;2024-01-15T09:19:37;3.90;;;1.92;;
53688;SDS011;39583;54.682;30.662;2024-01-15T09:22:07;2.35;;;1.50;;
53688;SDS011;39583;54.682;30.662;2024-01-15T09:24:34;3.60;;;2.03;;
53688;SDS011;39583;54.682;30.662;2024-01-15T09:27:03;3.38;;;2.15;;
53688;SDS011;39583;54.682;30.662;2024-01-15T09:29:31;2.63;;;1.33;;
53688;SDS011;39583;54.682;30.662;2024-01-15T09:31:59;2.65;;;1.55;;
53688;SDS011;39583;54.682;30.662;2024-01-15T09:34:26;2.40;;;1.35;;
53688;SDS011;39583;54.682;30.662;2024-01-15T09:36:54;1.35;;;0.68;;
53688;SDS011;39583;54.682;30.662;2024-01-15T09:39:22;3.05;;;1.63;;
53688;SDS011;39583;54.682;30.662;2024-01-15T09:41:50;3.38;;;1.40;;
53688;SDS011;39583;54.682;30.662;2024-01-15T09:44:18;5.38;;;2.42;;
53688;SDS011;39583;54.682;30.662;2024-01-15T09:46:47;3.00;;;1.90;;
53688;SDS011;39583;54.682;30.662;2024-01-15T09:49:17;1.85;;;1.02;;
53688;SDS011;39583;54.682;30.662;2024-01-15T09:51:45;7.07;;;2.58;;
53688;SDS011;39583;54.682;30.662;2024-01-15T09:54:28;5.10;;;1.90;;
53688;SDS011;39583;54.682;30.662;2024-01-15T09:56:56;3.92;;;2.47;;
53688;SDS011;39583;54.682;30.662;2024-01-15T09:59:24;4.88;;;1.98;;
53688;SDS011;39583;54.682;30.662;2024-01-15T10:01:53;6.65;;;2.65;;
53688;SDS011;39583;54.682;30.662;2024-01-15T10:04:21;6.95;;;3.22;;
53688;SDS011;39583;54.682;30.662;2024-01-15T10:06:51;5.80;;;2.53;;
53688;SDS011;39583;54.682;30.662;2024-01-15T10:09:19;6.10;;;2.10;;
53688;SDS011;39583;54.682;30.662;2024-01-15T10:11:47;4.47;;;2.97;;
53688;SDS011;39583;54.682;30.662;2024-01-15T10:14:14;3.85;;;2.13;;
53688;SDS011;39583;54.682;30.662;2024-01-15T10:16:42;5.25;;;2.53;;
53688;SDS011;39583;54.682;30.662;2024-01-15T10:19:10;6.10;;;3.05;;
53688;SDS011;39583;54.682;30.662;2024-01-15T10:21:38;5.10;;;2.60;;
53688;SDS011;39583;54.682;30.662;2024-01-15T10:24:06;5.88;;;3.20;;
53688;SDS011;39583;54.682;30.662;2024-01-15T10:26:33;4.85;;;2.55;;
53688;SDS011;39583;54.682;30.662;2024-01-15T10:29:01;5.55;;;2.45;;
53688;SDS011;39583;54.682;30.662;2024-01-15T10:31:29;3.33;;;1.73;;
53688;SDS011;39583;54.682;30.662;2024-01-15T10:34:31;7.60;;;3.63;;
53688;SDS011;39583;54.682;30.662;2024-01-15T10:36:52;3.97;;;2.85;;
53688;SDS011;39583;54.682;30.662;2024-01-15T10:39:23;5.18;;;2.78;;
53688;SDS011;39583;54.682;30.662;2024-01-15T10:41:50;6.25;;;2.90;;
53688;SDS011;39583;54.682;30.662;2024-01-15T10:44:18;4.30;;;2.53;;
53688;SDS011;39583;54.682;30.662;2024-01-15T10:46:49;5.20;;;3.15;;
53688;SDS011;39583;54.682;30.662;2024-01-15T10:49:18;4.53;;;2.72;;
53688;SDS011;39583;54.682;30.662;2024-01-15T10:51:47;5.90;;;3.60;;
53688;SDS011;39583;54.682;30.662;2024-01-15T10:54:15;2.83;;;1.83;;
53688;SDS011;39583;54.682;30.662;2024-01-15T10:56:44;4.75;;;2.13;;
53688;SDS011;39583;54.682;30.662;2024-01-15T10:59:12;5.25;;;2.95;;
53688;SDS011;39583;54.682;30.662;2024-01-15T11:01:41;5.32;;;3.97;;
53688;SDS011;39583;54.682;30.662;2024-01-15T11:04:10;4.95;;;2.70;;
53688;SDS011;39583;54.682;30.662;2024-01-15T11:06:42;5.43;;;2.42;;
53688;SDS011;39583;54.682;30.662;2024-01-15T11:09:12;4.20;;;2.72;;
53688;SDS011;39583;54.682;30.662;2024-01-15T11:11:43;3.95;;;2.70;;
53688;SDS011;39583;54.682;30.662;2024-01-15T11:17:07;5.53;;;2.28;;
53688;SDS011;39583;54.682;30.662;2024-01-15T11:19:35;4.43;;;2.33;;
53688;SDS011;39583;54.682;30.662;2024-01-15T11:22:06;4.38;;;2.42;;
53688;SDS011;39583;54.682;30.662;2024-01-15T11:24:36;3.72;;;2.05;;
53688;SDS011;39583;54.682;30.662;2024-01-15T11:27:07;5.82;;;2.70;;
53688;SDS011;39583;54.682;30.662;2024-01-15T11:29:36;5.82;;;2.33;;
53688;SDS011;39583;54.682;30.662;2024-01-15T11:32:04;9.30;;;3.22;;
53688;SDS011;39583;54.682;30.662;2024-01-15T11:37:56;7.25;;;3.38;;
53688;SDS011;39583;54.682;30.662;2024-01-15T11:40:19;5.32;;;3.22;;
53688;SDS011;39583;54.682;30.662;2024-01-15T11:42:47;9.35;;;3.65;;
53688;SDS011;39583;54.682;30.662;2024-01-15T11:45:20;3.80;;;1.80;;
53688;SDS011;39583;54.682;30.662;2024-01-15T11:50:15;3.08;;;2.28;;
53688;SDS011;39583;54.682;30.662;2024-01-15T11:52:44;7.07;;;2.45;;
53688;SDS011;39583;54.682;30.662;2024-01-15T11:55:31;5.55;;;2.60;;
53688;SDS011;39583;54.682;30.662;2024-01-15T11:58:02;4.90;;;2.58;;
53688;SDS011;39583;54.682;30.662;2024-01-15T12:00:42;6.30;;;3.10;;
53688;SDS011;39583;54.682;30.662;2024-01-15T12:03:12;8.20;;;3.85;;
53688;SDS011;39583;54.682;30.662;2024-01-15T12:05:40;4.55;;;2.53;;
53688;SDS011;39583;54.682;30.662;2024-01-15T12:08:11;5.82;;;3.13;;
53688;SDS011;39583;54.682;30.662;2024-01-15T12:10:42;6.90;;;3.53;;
53688;SDS011;39583;54.682;30.662;2024-01-15T12:13:13;7.75;;;3.30;;
53688;SDS011;39583;54.682;30.662;2024-01-15T12:15:42;4.72;;;3.08;;
53688;SDS011;39583;54.682;30.662;2024-01-15T12:18:14;3.95;;;2.05;;
53688;SDS011;39583;54.682;30.662;2024-01-15T12:20:44;8.20;;;3.88;;
53688;SDS011;39583;54.682;30.662;2024-01-15T12:23:16;3.75;;;2.20;;
53688;SDS011;39583;54.682;30.662;2024-01-15T12:25:45;3.90;;;2.65;;
53688;SDS011;39583;54.682;30.662;2024-01-15T12:28:14;6.57;;;2.72;;
53688;SDS011;39583;54.682;30.662;2024-01-15T12:30:41;4.63;;;2.63;;
53688;SDS011;39583;54.682;30.662;2024-01-15T12:33:10;7.15;;;3.70;;
53688;SDS011;39583;54.682;30.662;2024-01-15T12:35:38;5.90;;;3.25;;
53688;SDS011;39583;54.682;30.662;2024-01-15T12:38:05;6.07;;;3.80;;
53688;SDS011;39583;54.682;30.662;2024-01-15T12:40:33;5.50;;;3.08;;
53688;SDS011;39583;54.682;30.662;2024-01-15T12:43:07;4.05;;;2.55;;
53688;SDS011;39583;54.682;30.662;2024-01-15T12:45:36;4.32;;;2.60;;
53688;SDS011;39583;54.682;30.662;2024-01-15T12:48:05;7.18;;;3.80;;
53688;SDS011;39583;54.682;30.662;2024-01-15T12:50:33;6.72;;;3.63;;
53688;SDS011;39583;54.682;30.662;2024-01-15T12:53:02;5.95;;;3.50;;
53688;SDS011;39583;54.682;30.662;2024-01-15T12:55:31;5.07;;;2.22;;
53688;SDS011;39583;54.682;30.662;2024-01-15T12:57:59;4.95;;;2.90;;
53688;SDS011;39583;54.682;30.662;2024-01-15T13:00:27;7.25;;;2.92;;
53688;SDS011;39583;54.682;30.662;2024-01-15T13:02:56;5.47;;;3.13;;
53688;SDS011;39583;54.682;30.662;2024-01-15T13:05:24;4.47;;;2.78;;
53688;SDS011;39583;54.682;30.662;2024-01-15T13:07:55;8.75;;;4.88;;
53688;SDS011;39583;54.682;30.662;2024-01-15T13:10:22;6.55;;;3.47;;
53688;SDS011;39583;54.682;30.662;2024-01-15T13:12:52;7.15;;;4.20;;
53688;SDS011;39583;54.682;30.662;2024-01-15T13:15:20;7.57;;;4.93;;
53688;SDS011;39583;54.682;30.662;2024-01-15T13:17:48;5.03;;;3.58;;
53688;SDS011;39583;54.682;30.662;2024-01-15T13:20:15;4.63;;;2.63;;
53688;SDS011;39583;54.682;30.662;2024-01-15T13:22:43;6.05;;;3.42;;
53688;SDS011;39583;54.682;30.662;2024-01-15T13:25:13;7.55;;;4.13;;
53688;SDS011;39583;54.682;30.662;2024-01-15T13:27:42;5.40;;;3.28;;
53688;SDS011;39583;54.682;30.662;2024-01-15T13:30:10;4.97;;;2.83;;
53688;SDS011;39583;54.682;30.662;2024-01-15T13:32:40;6.47;;;3.88;;
53688;SDS011;39583;54.682;30.662;2024-01-15T13:35:08;10.38;;;4.38;;
53688;SDS011;39583;54.682;30.662;2024-01-15T13:37:41;5.47;;;3.38;;
53688;SDS011;39583;54.682;30.662;2024-01-15T13:40:09;5.65;;;3.33;;
53688;SDS011;39583;54.682;30.662;2024-01-15T13:42:44;5.28;;;2.92;;
53688;SDS011;39583;54.682;30.662;2024-01-15T13:45:14;6.63;;;3.47;;
53688;SDS011;39583;54.682;30.662;2024-01-15T13:47:42;9.18;;;5.03;;
53688;SDS011;39583;54.682;30.662;2024-01-15T13:50:13;4.53;;;2.47;;
53688;SDS011;39583;54.682;30.662;2024-01-15T13:52:40;7.07;;;4.43;;
53688;SDS011;39583;54.682;30.662;2024-01-15T13:55:08;7.47;;;4.50;;
53688;SDS011;39583;54.682;30.662;2024-01-15T13:57:37;8.70;;;3.95;;
53688;SDS011;39583;54.682;30.662;2024-01-15T14:00:05;4.57;;;2.72;;
53688;SDS011;39583;54.682;30.662;2024-01-15T14:02:39;7.70;;;3.67;;
53688;SDS011;39583;54.682;30.662;2024-01-15T14:05:07;6.07;;;4.10;;
53688;SDS011;39583;54.682;30.662;2024-01-15T14:07:35;9.52;;;4.68;;
53688;SDS011;39583;54.682;30.662;2024-01-15T14:10:03;6.25;;;4.20;;
53688;SDS011;39583;54.682;30.662;2024-01-15T14:12:31;5.68;;;3.45;;
53688;SDS011;39583;54.682;30.662;2024-01-15T14:14:59;9.48;;;4.05;;
53688;SDS011;39583;54.682;30.662;2024-01-15T14:17:28;14.15;;;5.45;;
53688;SDS011;39583;54.682;30.662;2024-01-15T14:19:56;4.43;;;2.58;;
53688;SDS011;39583;54.682;30.662;2024-01-15T14:22:24;7.35;;;4.75;;
53688;SDS011;39583;54.682;30.662;2024-01-15T14:24:52;9.10;;;4.65;;
53688;SDS011;39583;54.682;30.662;2024-01-15T14:27:20;11.70;;;4.53;;
53688;SDS011;39583;54.682;30.662;2024-01-15T14:29:48;7.22;;;3.97;;
53688;SDS011;39583;54.682;30.662;2024-01-15T14:32:16;13.07;;;5.88;;
53688;SDS011;39583;54.682;30.662;2024-01-15T14:34:44;8.65;;;4.78;;
53688;SDS011;39583;54.682;30.662;2024-01-15T14:37:13;8.18;;;5.32;;
53688;SDS011;39583;54.682;30.662;2024-01-15T14:39:41;7.28;;;3.50;;
53688;SDS011;39583;54.682;30.662;2024-01-15T14:42:10;9.73;;;5.35;;
53688;SDS011;39583;54.682;30.662;2024-01-15T14:44:38;7.78;;;4.28;;
53688;SDS011;39583;54.682;30.662;2024-01-15T14:47:08;8.23;;;5.00;;
53688;SDS011;39583;54.682;30.662;2024-01-15T14:49:35;9.02;;;5.50;;
53688;SDS011;39583;54.682;30.662;2024-01-15T14:52:03;9.40;;;5.82;;
53688;SDS011;39583;54.682;30.662;2024-01-15T14:54:31;7.75;;;3.58;;
53688;SDS011;39583;54.682;30.662;2024-01-15T14:56:59;10.50;;;5.05;;
53688;SDS011;39583;54.682;30.662;2024-01-15T14:59:26;5.40;;;3.35;;
53688;SDS011;39583;54.682;30.662;2024-01-15T15:01:56;8.57;;;3.47;;
53688;SDS011;39583;54.682;30.662;2024-01-15T15:04:24;7.20;;;3.20;;
53688;SDS011;39583;54.682;30.662;2024-01-15T15:06:51;10.00;;;4.75;;
53688;SDS011;39583;54.682;30.662;2024-01-15T15:09:19;6.43;;;3.60;;
53688;SDS011;39583;54.682;30.662;2024-01-15T15:11:47;8.07;;;4.43;;
53688;SDS011;39583;54.682;30.662;2024-01-15T15:14:15;6.43;;;3.05;;
53688;SDS011;39583;54.682;30.662;2024-01-15T15:16:42;7.40;;;3.60;;
53688;SDS011;39583;54.682;30.662;2024-01-15T15:19:10;8.70;;;5.15;;
53688;SDS011;39583;54.682;30.662;2024-01-15T15:21:38;7.60;;;3.92;;
53688;SDS011;39583;54.682;30.662;2024-01-15T15:24:06;6.97;;;3.90;;
53688;SDS011;39583;54.682;30.662;2024-01-15T15:26:34;9.57;;;4.95;;
53688;SDS011;39583;54.682;30.662;2024-01-15T15:29:01;7.82;;;3.58;;
53688;SDS011;39583;54.682;30.662;2024-01-15T15:31:29;7.85;;;5.03;;
53688;SDS011;39583;54.682;30.662;2024-01-15T15:33:57;6.15;;;3.22;;
53688;SDS011;39583;54.682;30.662;2024-01-15T15:36:25;12.00;;;5.93;;
53688;SDS011;39583;54.682;30.662;2024-01-15T15:38:52;8.43;;;3.05;;
53688;SDS011;39583;54.682;30.662;2024-01-15T15:41:24;11.25;;;5.28;;
53688;SDS011;39583;54.682;30.662;2024-01-15T15:43:53;11.27;;;5.07;;
53688;SDS011;39583;54.682;30.662;2024-01-15T15:46:21;8.20;;;4.68;;
53688;SDS011;39583;54.682;30.662;2024-01-15T15:48:49;10.38;;;5.35;;
53688;SDS011;39583;54.682;30.662;2024-01-15T15:51:17;9.18;;;4.97;;
53688;SDS011;39583;54.682;30.662;2024-01-15T15:53:44;9.13;;;5.38;;
53688;SDS011;39583;54.682;30.662;2024-01-15T15:56:12;11.55;;;4.80;;
53688;SDS011;39583;54.682;30.662;2024-01-15T15:58:40;7.68;;;4.60;;
53688;SDS011;39583;54.682;30.662;2024-01-15T16:01:07;9.98;;;5.35;;
53688;SDS011;39583;54.682;30.662;2024-01-15T16:03:35;9.68;;;5.35;;
53688;SDS011;39583;54.682;30.662;2024-01-15T16:06:03;8.73;;;4.93;;
53688;SDS011;39583;54.682;30.662;2024-01-15T16:08:30;7.93;;;3.67;;
53688;SDS011;39583;54.682;30.662;2024-01-15T16:10:59;5.78;;;3.28;;
53688;SDS011;39583;54.682;30.662;2024-01-15T16:13:27;7.70;;;4.40;;
53688;SDS011;39583;54.682;30.662;2024-01-15T16:15:54;10.20;;;4.38;;
53688;SDS011;39583;54.682;30.662;2024-01-15T16:18:42;11.20;;;5.32;;
53688;SDS011;39583;54.682;30.662;2024-01-15T16:21:31;10.98;;;5.18;;
53688;SDS011;39583;54.682;30.662;2024-01-15T16:24:21;10.98;;;5.75;;
53688;SDS011;39583;54.682;30.662;2024-01-15T16:27:08;10.40;;;4.93;;
53688;SDS011;39583;54.682;30.662;2024-01-15T16:29:39;7.40;;;4.22;;
53688;SDS011;39583;54.682;30.662;2024-01-15T16:32:07;8.57;;;4.10;;
53688;SDS011;39583;54.682;30.662;2024-01-15T16:34:35;11.38;;;4.88;;
53688;SDS011;39583;54.682;30.662;2024-01-15T16:37:02;11.98;;;5.32;;
53688;SDS011;39583;54.682;30.662;2024-01-15T16:39:31;12.00;;;5.60;;
53688;SDS011;39583;54.682;30.662;2024-01-15T16:41:59;9.13;;;5.03;;
53688;SDS011;39583;54.682;30.662;2024-01-15T16:44:27;9.63;;;3.97;;
53688;SDS011;39583;54.682;30.662;2024-01-15T16:46:54;7.60;;;4.65;;
53688;SDS011;39583;54.682;30.662;2024-01-15T16:49:31;8.43;;;4.93;;
53688;SDS011;39583;54.682;30.662;2024-01-15T16:51:59;11.90;;;5.72;;
53688;SDS011;39583;54.682;30.662;2024-01-15T16:54:27;10.55;;;4.68;;
53688;SDS011;39583;54.682;30.662;2024-01-15T16:56:55;13.85;;;6.07;;
53688;SDS011;39583;54.682;30.662;2024-01-15T16:59:23;8.63;;;4.60;;
53688;SDS011;39583;54.682;30.662;2024-01-15T17:01:50;10.70;;;4.78;;
53688;SDS011;39583;54.682;30.662;2024-01-15T17:04:18;7.80;;;4.38;;
53688;SDS011;39583;54.682;30.662;2024-01-15T17:06:46;9.68;;;4.50;;
53688;SDS011;39583;54.682;30.662;2024-01-15T17:09:13;13.23;;;6.68;;
53688;SDS011;39583;54.682;30.662;2024-01-15T17:11:41;11.82;;;5.95;;
53688;SDS011;39583;54.682;30.662;2024-01-15T17:14:10;9.73;;;5.25;;
53688;SDS011;39583;54.682;30.662;2024-01-15T17:16:38;10.52;;;4.65;;
53688;SDS011;39583;54.682;30.662;2024-01-15T17:19:06;4.78;;;3.38;;
53688;SDS011;39583;54.682;30.662;2024-01-15T17:21:34;9.65;;;5.25;;
53688;SDS011;39583;54.682;30.662;2024-01-15T17:24:02;9.40;;;5.40;;
53688;SDS011;39583;54.682;30.662;2024-01-15T17:26:30;17.60;;;5.38;;
53688;SDS011;39583;54.682;30.662;2024-01-15T17:28:58;8.38;;;4.10;;
53688;SDS011;39583;54.682;30.662;2024-01-15T17:31:26;11.98;;;4.65;;
53688;SDS011;39583;54.682;30.662;2024-01-15T17:33:54;9.35;;;4.95;;
53688;SDS011;39583;54.682;30.662;2024-01-15T17:36:25;11.35;;;5.82;;
53688;SDS011;39583;54.682;30.662;2024-01-15T17:38:53;13.48;;;4.80;;
53688;SDS011;39583;54.682;30.662;2024-01-15T17:41:20;6.40;;;3.42;;
53688;SDS011;39583;54.682;30.662;2024-01-15T17:43:49;8.73;;;4.55;;
53688;SDS011;39583;54.682;30.662;2024-01-15T17:46:17;8.55;;;4.10;;
53688;SDS011;39583;54.682;30.662;2024-01-15T17:48:45;7.88;;;4.97;;
53688;SDS011;39583;54.682;30.662;2024-01-15T17:51:18;11.15;;;5.35;;
53688;SDS011;39583;54.682;30.662;2024-01-15T17:53:46;8.55;;;4.88;;
53688;SDS011;39583;54.682;30.662;2024-01-15T17:56:14;8.90;;;5.38;;
53688;SDS011;39583;54.682;30.662;2024-01-15T17:58:42;8.82;;;3.80;;
53688;SDS011;39583;54.682;30.662;2024-01-15T18:01:10;11.38;;;5.38;;
53688;SDS011;39583;54.682;30.662;2024-01-15T18:03:38;4.75;;;2.67;;
53688;SDS011;39583;54.682;30.662;2024-01-15T18:06:06;9.77;;;4.90;;
53688;SDS011;39583;54.682;30.662;2024-01-15T18:08:34;7.53;;;4.82;;
53688;SDS011;39583;54.682;30.662;2024-01-15T18:11:02;8.13;;;4.18;;
53688;SDS011;39583;54.682;30.662;2024-01-15T18:13:30;7.75;;;4.07;;
53688;SDS011;39583;54.682;30.662;2024-01-15T18:15:59;7.10;;;3.20;;
53688;SDS011;39583;54.682;30.662;2024-01-15T18:18:27;9.77;;;5.45;;
53688;SDS011;39583;54.682;30.662;2024-01-15T18:20:54;8.40;;;4.43;;
53688;SDS011;39583;54.682;30.662;2024-01-15T18:23:22;8.77;;;3.88;;
